createdAt,value
2017-08-26T03:30:18.041Z,4.00
2017-08-26T03:32:45.613Z,4.60
2017-08-26T03:35:13.257Z,4.47
2017-08-26T03:37:40.855Z,4.57
2017-08-26T03:40:09.339Z,4.03
2017-08-26T03:42:37.520Z,4.47
2017-08-26T03:45:05.138Z,3.93
2017-08-26T03:47:32.768Z,5.17
2017-08-26T03:50:00.383Z,3.93
2017-08-26T03:52:28.002Z,4.20
2017-08-26T03:54:55.599Z,4.60
2017-08-26T03:57:23.285Z,4.40
2017-08-26T03:59:50.885Z,4.23
2017-08-26T04:02:18.560Z,4.90
2017-08-26T04:04:46.163Z,4.20
2017-08-26T04:07:14.139Z,3.67
2017-08-26T04:09:41.739Z,4.47
2017-08-26T04:12:09.357Z,3.97
2017-08-26T04:14:37.034Z,4.30
2017-08-26T04:17:04.639Z,4.70
2017-08-26T04:19:32.641Z,4.10
2017-08-26T04:22:00.241Z,4.57
2017-08-26T04:24:27.845Z,5.70
2017-08-26T04:26:55.840Z,5.10
2017-08-26T04:29:23.443Z,3.97
2017-08-26T04:31:51.043Z,5.00
2017-08-26T04:34:19.123Z,4.50
2017-08-26T04:36:46.727Z,4.40
2017-08-26T04:39:14.343Z,4.37
2017-08-26T04:41:42.380Z,4.40
2017-08-26T04:44:10.023Z,4.83
2017-08-26T04:46:37.645Z,3.83
2017-08-26T04:49:05.286Z,4.20
2017-08-26T04:51:32.932Z,4.40
2017-08-26T04:54:00.552Z,5.00
2017-08-26T04:56:28.164Z,3.67
2017-08-26T04:58:55.811Z,4.83
2017-08-26T05:01:23.419Z,4.53
2017-08-26T05:03:51.498Z,4.40
2017-08-26T05:06:19.117Z,4.70
2017-08-26T05:08:46.748Z,4.53
2017-08-26T05:11:14.364Z,4.83
2017-08-26T05:13:42.021Z,4.87
2017-08-26T05:16:09.643Z,4.90
2017-08-26T05:18:37.263Z,4.20
2017-08-26T05:21:04.905Z,4.70
2017-08-26T05:23:32.515Z,4.43
2017-08-26T05:26:00.135Z,5.20
2017-08-26T05:28:27.845Z,5.20
2017-08-26T05:30:55.719Z,4.60
2017-08-26T05:33:23.411Z,5.07
2017-08-26T05:35:51.030Z,4.97
2017-08-26T05:38:18.654Z,4.80
2017-08-26T05:40:46.353Z,4.87
2017-08-26T05:43:14.405Z,4.53
2017-08-26T05:45:42.017Z,5.13
2017-08-26T05:48:09.626Z,4.03
2017-08-26T05:50:37.273Z,4.67
2017-08-26T05:53:04.879Z,4.20
2017-08-26T05:55:32.493Z,5.40
2017-08-26T05:58:00.102Z,3.93
2017-08-26T06:00:27.880Z,5.17
2017-08-26T06:02:55.490Z,4.67
2017-08-26T06:05:23.101Z,4.90
2017-08-26T06:07:50.756Z,4.67
2017-08-26T06:10:18.382Z,4.70
2017-08-26T06:12:46.017Z,4.70
2017-08-26T06:15:13.622Z,4.50
2017-08-26T06:17:41.247Z,5.20
2017-08-26T06:20:09.229Z,4.77
2017-08-26T06:22:37.545Z,4.80
2017-08-26T06:25:05.147Z,5.43
2017-08-26T06:27:32.817Z,4.77
2017-08-26T06:30:00.577Z,6.73
2017-08-26T06:32:28.206Z,5.43
2017-08-26T06:34:55.836Z,5.97
2017-08-26T06:37:23.516Z,5.87
2017-08-26T06:39:53.283Z,6.00
2017-08-26T06:42:20.894Z,5.43
2017-08-26T06:44:48.901Z,5.60
2017-08-26T06:47:16.507Z,5.10
2017-08-26T06:49:44.125Z,5.40
2017-08-26T06:52:11.911Z,5.60
2017-08-26T06:54:39.534Z,5.53
2017-08-26T06:57:07.167Z,5.53
2017-08-26T06:59:34.784Z,5.40
2017-08-26T07:02:03.050Z,4.90
2017-08-26T07:04:30.868Z,4.93
2017-08-26T07:06:58.529Z,6.17
2017-08-26T07:09:26.151Z,4.83
2017-08-26T07:11:54.121Z,11.50
2017-08-26T07:14:22.857Z,6.20
2017-08-26T07:16:50.529Z,6.13
2017-08-26T07:19:18.552Z,5.10
2017-08-26T07:21:46.164Z,6.20
2017-08-26T07:24:13.851Z,5.87
2017-08-26T07:26:41.826Z,6.43
2017-08-26T07:29:09.476Z,6.10
2017-08-26T07:31:37.450Z,6.87
2017-08-26T07:34:06.231Z,7.60
2017-08-26T07:36:34.151Z,6.50
2017-08-26T07:39:01.788Z,7.17
2017-08-26T07:41:29.839Z,7.30
2017-08-26T07:43:57.466Z,6.77
2017-08-26T07:46:25.078Z,7.40
2017-08-26T07:48:53.134Z,6.90
2017-08-26T07:51:20.738Z,7.67
2017-08-26T07:53:48.361Z,6.60
2017-08-26T07:56:16.288Z,7.03
2017-08-26T07:58:43.928Z,8.23
2017-08-26T08:01:12.527Z,8.10
2017-08-26T08:03:40.518Z,7.60
2017-08-26T08:06:08.141Z,8.27
2017-08-26T08:08:35.746Z,8.00
2017-08-26T08:11:03.671Z,8.90
2017-08-26T08:13:31.321Z,6.90
2017-08-26T08:15:59.245Z,8.13
2017-08-26T08:18:26.902Z,8.47
2017-08-26T08:20:54.526Z,8.50
2017-08-26T08:23:22.159Z,9.07
2017-08-26T08:25:49.805Z,8.83
2017-08-26T08:28:17.455Z,7.57
2017-08-26T08:30:45.081Z,7.73
2017-08-26T08:33:13.093Z,7.83
2017-08-26T08:35:40.882Z,7.90
2017-08-26T08:38:08.818Z,7.43
2017-08-26T08:40:36.458Z,7.80
2017-08-26T08:43:04.064Z,6.87
2017-08-26T08:45:31.713Z,7.27
2017-08-26T08:47:59.392Z,9.13
2017-08-26T08:50:27.049Z,7.73
2017-08-26T08:52:54.669Z,7.87
2017-08-26T08:55:22.663Z,7.70
2017-08-26T08:57:50.278Z,7.10
2017-08-26T09:00:17.927Z,6.90
2017-08-26T09:02:45.921Z,8.10
2017-08-26T09:05:13.521Z,7.67
2017-08-26T09:07:42.206Z,6.77
2017-08-26T09:10:10.311Z,7.70
2017-08-26T09:12:37.930Z,7.30
2017-08-26T09:15:05.572Z,6.30
2017-08-26T09:17:33.554Z,6.27
2017-08-26T09:20:01.204Z,7.30
2017-08-26T09:22:28.830Z,7.80
2017-08-26T09:24:56.957Z,5.53
2017-08-26T09:27:24.585Z,6.20
2017-08-26T09:29:52.207Z,6.60
2017-08-26T09:32:20.655Z,7.73
2017-08-26T09:34:48.280Z,17.37
2017-08-26T09:37:15.887Z,6.40
2017-08-26T09:39:43.914Z,7.33
2017-08-26T09:42:11.522Z,5.67
2017-08-26T09:44:39.141Z,6.03
2017-08-26T09:47:07.103Z,7.90
2017-08-26T09:49:34.752Z,5.40
2017-08-26T09:52:02.592Z,5.43
2017-08-26T09:54:30.626Z,5.13
2017-08-26T09:56:58.286Z,5.60
2017-08-26T09:59:25.913Z,5.57
2017-08-26T10:01:54.276Z,5.40
2017-08-26T10:04:22.494Z,5.80
2017-08-26T10:06:50.138Z,5.97
2017-08-26T10:09:19.037Z,5.40
2017-08-26T10:11:46.672Z,4.82
2017-08-26T10:14:14.483Z,6.30
2017-08-26T10:16:42.585Z,5.07
2017-08-26T10:19:10.211Z,4.97
2017-08-26T10:21:37.818Z,5.10
2017-08-26T10:24:05.853Z,5.15
2017-08-26T10:26:34.374Z,4.85
2017-08-26T10:29:02.030Z,4.20
2017-08-26T10:31:30.187Z,4.90
2017-08-26T10:33:57.961Z,5.40
2017-08-26T10:36:25.629Z,5.00
2017-08-26T10:38:53.616Z,5.53
2017-08-26T10:41:21.225Z,5.35
2017-08-26T10:43:48.837Z,5.97
2017-08-26T10:46:16.819Z,5.20
2017-08-26T10:48:44.473Z,6.30
2017-08-26T10:51:12.082Z,6.32
2017-08-26T10:53:40.246Z,5.32
2017-08-26T10:56:07.882Z,5.78
2017-08-26T10:58:35.573Z,5.18
2017-08-26T11:01:03.568Z,4.43
2017-08-26T11:03:31.181Z,4.60
2017-08-26T11:05:58.792Z,4.40
2017-08-26T11:08:27.562Z,4.62
2017-08-26T11:10:55.179Z,4.20
2017-08-26T11:13:22.801Z,4.32
2017-08-26T11:15:50.956Z,4.35
2017-08-26T11:18:19.178Z,4.35
2017-08-26T11:20:46.808Z,4.78
2017-08-26T11:23:14.854Z,5.43
2017-08-26T11:25:42.482Z,3.92
2017-08-26T11:28:10.128Z,4.32
2017-08-26T11:30:38.152Z,3.92
2017-08-26T11:33:05.769Z,4.57
2017-08-26T11:35:33.397Z,4.63
2017-08-26T11:38:01.445Z,4.20
2017-08-26T11:40:29.034Z,4.10
2017-08-26T11:42:56.639Z,4.07
2017-08-26T11:45:24.648Z,4.27
2017-08-26T11:47:52.249Z,4.10
2017-08-26T11:50:19.862Z,4.10
2017-08-26T11:52:47.833Z,4.07
2017-08-26T11:55:15.462Z,3.93
2017-08-26T11:57:43.185Z,4.10
2017-08-26T12:00:11.358Z,4.00
2017-08-26T12:02:39.006Z,4.43
2017-08-26T12:05:06.626Z,3.67
2017-08-26T12:07:34.647Z,3.77
2017-08-26T12:10:02.256Z,4.47
2017-08-26T12:12:29.871Z,4.83
2017-08-26T12:14:58.109Z,4.93
2017-08-26T12:17:25.735Z,4.67
2017-08-26T12:19:53.446Z,5.27
2017-08-26T12:22:21.393Z,4.47
2017-08-26T12:24:48.992Z,4.90
2017-08-26T12:27:16.601Z,4.57
2017-08-26T12:29:44.567Z,5.23
2017-08-26T12:32:12.185Z,5.53
2017-08-26T12:34:39.868Z,4.67
2017-08-26T12:37:07.997Z,4.87
2017-08-26T12:39:35.633Z,5.03
2017-08-26T12:42:03.271Z,5.10
2017-08-26T12:44:31.276Z,4.63
2017-08-26T12:46:58.881Z,4.17
2017-08-26T12:49:26.524Z,5.00
2017-08-26T12:51:54.612Z,5.00
2017-08-26T12:54:22.446Z,5.10
2017-08-26T12:56:50.242Z,5.10
2017-08-26T12:59:18.286Z,5.17
2017-08-26T13:01:45.892Z,5.00
2017-08-26T13:04:13.529Z,4.57
2017-08-26T13:06:41.512Z,5.03
2017-08-26T13:09:09.147Z,4.10
2017-08-26T13:11:36.783Z,4.40
2017-08-26T13:14:04.871Z,4.10
2017-08-26T13:16:32.478Z,4.80
2017-08-26T13:19:00.154Z,4.37
2017-08-26T13:21:28.137Z,3.97
2017-08-26T13:23:55.759Z,4.40
2017-08-26T13:26:23.397Z,4.43
2017-08-26T13:28:51.497Z,4.00
2017-08-26T13:31:19.166Z,4.90
2017-08-26T13:33:46.813Z,4.60
2017-08-26T13:36:14.902Z,4.90
2017-08-26T13:38:42.555Z,5.57
2017-08-26T13:41:10.162Z,4.63
2017-08-26T13:43:39.075Z,7.67
2017-08-26T13:46:06.707Z,5.00
2017-08-26T13:48:34.343Z,4.93
2017-08-26T13:51:02.459Z,4.60
2017-08-26T13:53:30.801Z,5.40
2017-08-26T13:55:58.442Z,5.33
2017-08-26T13:58:26.041Z,5.13
2017-08-26T14:00:53.648Z,5.13
2017-08-26T14:03:21.322Z,5.80
2017-08-26T14:05:48.948Z,5.60
2017-08-26T14:08:16.599Z,5.37
2017-08-26T14:10:44.218Z,5.13
2017-08-26T14:13:12.200Z,5.40
2017-08-26T14:15:39.811Z,5.40
2017-08-26T14:18:07.512Z,6.07
2017-08-26T14:20:35.184Z,6.23
2017-08-26T14:23:02.846Z,5.40
2017-08-26T14:25:30.455Z,5.90
2017-08-26T14:27:58.070Z,6.67
2017-08-26T14:30:26.222Z,5.70
2017-08-26T14:32:53.854Z,5.20
2017-08-26T14:35:21.511Z,5.60
2017-08-26T14:37:49.162Z,5.53
2017-08-26T14:40:16.787Z,5.50
2017-08-26T14:42:44.458Z,5.13
2017-08-26T14:45:12.073Z,6.50
2017-08-26T14:47:39.702Z,5.20
2017-08-26T14:50:07.445Z,5.60
2017-08-26T14:52:35.471Z,5.33
2017-08-26T14:55:03.147Z,5.37
2017-08-26T14:57:31.036Z,5.73
2017-08-26T14:59:58.732Z,5.40
2017-08-26T15:02:26.380Z,6.70
2017-08-26T15:04:54.123Z,5.80
2017-08-26T15:07:21.774Z,6.03
2017-08-26T15:09:49.814Z,5.77
2017-08-26T15:12:17.485Z,5.60
2017-08-26T15:14:45.094Z,6.93
2017-08-26T15:17:13.142Z,5.40
2017-08-26T15:19:40.790Z,5.73
2017-08-26T15:22:08.492Z,5.13
2017-08-26T15:24:36.597Z,5.17
2017-08-26T15:27:04.494Z,5.30
2017-08-26T15:29:32.185Z,5.87
2017-08-26T15:32:00.166Z,5.53
2017-08-26T15:34:27.821Z,5.57
2017-08-26T15:36:55.437Z,4.87
2017-08-26T15:39:23.481Z,5.60
2017-08-26T15:41:51.176Z,5.30
2017-08-26T15:44:18.824Z,5.37
2017-08-26T15:46:47.624Z,6.17
2017-08-26T15:49:15.312Z,5.47
2017-08-26T15:51:43.041Z,5.00
2017-08-26T15:54:11.065Z,5.53
2017-08-26T15:56:38.750Z,5.20
2017-08-26T15:59:06.384Z,5.07
2017-08-26T16:01:34.575Z,4.87
2017-08-26T16:04:02.230Z,4.77
2017-08-26T16:06:29.863Z,4.73
2017-08-26T16:08:59.818Z,4.40
2017-08-26T16:11:27.466Z,4.40
2017-08-26T16:13:55.093Z,4.27
2017-08-26T16:16:23.119Z,4.33
2017-08-26T16:18:50.753Z,4.33
2017-08-26T16:21:18.740Z,4.30
2017-08-26T16:23:47.073Z,4.70
2017-08-26T16:26:14.678Z,4.97
2017-08-26T16:28:42.289Z,4.90
2017-08-26T16:31:10.404Z,6.10
2017-08-26T16:33:38.255Z,4.90
2017-08-26T16:36:05.984Z,5.93
2017-08-26T16:38:34.017Z,4.47
2017-08-26T16:41:01.645Z,4.70
2017-08-26T16:43:29.263Z,5.37
2017-08-26T16:45:57.332Z,4.77
2017-08-26T16:48:24.949Z,5.27
2017-08-26T16:50:52.645Z,5.40
2017-08-26T16:53:20.941Z,4.53
2017-08-26T16:55:48.586Z,5.00
2017-08-26T16:58:16.206Z,6.20
2017-08-26T17:00:44.218Z,5.13
2017-08-26T17:03:11.845Z,4.70
2017-08-26T17:05:39.458Z,5.40
2017-08-26T17:08:07.676Z,5.33
2017-08-26T17:10:35.353Z,4.83
2017-08-26T17:13:02.989Z,5.10
2017-08-26T17:15:31.107Z,5.20
2017-08-26T17:17:58.741Z,5.33
2017-08-26T17:20:26.362Z,4.87
2017-08-26T17:22:54.406Z,4.47
2017-08-26T17:25:22.019Z,5.50
2017-08-26T17:27:49.666Z,6.63
2017-08-26T17:30:17.738Z,4.90
2017-08-26T17:32:45.349Z,5.80
2017-08-26T17:35:13.011Z,5.70
2017-08-26T17:37:41.094Z,4.97
2017-08-26T17:40:08.779Z,4.70
2017-08-26T17:42:36.426Z,4.93
2017-08-26T17:45:04.461Z,5.37
2017-08-26T17:47:32.120Z,5.30
2017-08-26T17:49:59.765Z,5.30
2017-08-26T17:52:27.778Z,6.20
2017-08-26T17:54:55.453Z,5.67
2017-08-26T17:57:23.068Z,4.90
2017-08-26T17:59:51.069Z,5.43
2017-08-26T18:02:18.677Z,4.93
2017-08-26T18:04:46.320Z,5.47
2017-08-26T18:07:14.275Z,7.33
2017-08-26T18:09:41.904Z,6.83
2017-08-26T18:12:09.569Z,6.10
2017-08-26T18:14:37.697Z,7.03
2017-08-26T18:17:05.341Z,5.90
2017-08-26T18:19:32.973Z,5.97
2017-08-26T18:22:00.995Z,5.07
2017-08-26T18:24:28.610Z,6.10
2017-08-26T18:26:56.295Z,5.60
2017-08-26T18:29:24.410Z,4.60
2017-08-26T18:31:52.036Z,5.50
2017-08-26T18:34:20.047Z,4.10
2017-08-26T18:36:49.122Z,7.20
2017-08-26T18:39:16.791Z,8.13
2017-08-26T18:41:44.417Z,7.47
2017-08-26T18:44:12.458Z,6.63
2017-08-26T18:46:40.076Z,6.57
2017-08-26T18:49:07.705Z,7.37
2017-08-26T18:51:37.696Z,11.43
2017-08-26T18:54:05.659Z,10.00
2017-08-26T18:56:33.281Z,7.27
2017-08-26T18:59:01.270Z,6.37
2017-08-26T19:01:28.913Z,6.70
2017-08-26T19:03:56.673Z,5.50
2017-08-26T19:06:24.816Z,5.70
2017-08-26T19:08:52.464Z,6.53
2017-08-26T19:11:20.089Z,5.80
2017-08-26T19:13:48.103Z,6.07
2017-08-26T19:16:15.708Z,7.40
2017-08-26T19:18:43.336Z,7.30
2017-08-26T19:21:12.108Z,8.40
2017-08-26T19:23:39.711Z,7.63
2017-08-26T19:26:07.315Z,6.17
2017-08-26T19:28:35.313Z,5.80
2017-08-26T19:31:02.994Z,5.60
2017-08-26T19:33:30.628Z,5.77
2017-08-26T19:35:59.453Z,6.53
2017-08-26T19:38:27.078Z,5.77
2017-08-26T19:40:54.682Z,5.97
2017-08-26T19:43:22.814Z,5.90
2017-08-26T19:45:50.687Z,5.90
2017-08-26T19:48:18.589Z,6.33
2017-08-26T19:50:46.613Z,6.70
2017-08-26T19:53:14.224Z,6.87
2017-08-26T19:55:42.790Z,5.77
2017-08-26T19:58:10.782Z,7.10
2017-08-26T20:00:38.407Z,5.97
2017-08-26T20:03:06.045Z,6.80
2017-08-26T20:05:34.134Z,6.30
2017-08-26T20:08:01.800Z,6.60
2017-08-26T20:10:29.420Z,6.77
2017-08-26T20:12:57.403Z,6.80
2017-08-26T20:15:25.032Z,6.93
2017-08-26T20:17:52.792Z,6.73
2017-08-26T20:20:20.809Z,6.30
2017-08-26T20:22:48.680Z,8.03
2017-08-26T20:25:16.481Z,9.53
2017-08-26T20:27:44.506Z,6.90
2017-08-26T20:30:12.131Z,6.90
2017-08-26T20:32:39.753Z,7.70
2017-08-26T20:35:07.748Z,7.17
2017-08-26T20:37:35.366Z,7.73
2017-08-26T20:40:02.991Z,7.60
2017-08-26T20:42:31.028Z,7.37
2017-08-26T20:44:58.655Z,6.83
2017-08-26T20:47:26.296Z,8.40
2017-08-26T20:49:54.296Z,8.00
2017-08-26T20:52:21.996Z,6.97
2017-08-26T20:54:49.624Z,7.80
2017-08-26T20:57:17.612Z,8.20
2017-08-26T20:59:45.239Z,8.60
2017-08-26T21:02:12.862Z,9.50
2017-08-26T21:04:40.844Z,9.27
2017-08-26T21:07:08.489Z,8.67
2017-08-26T21:09:36.197Z,9.73
2017-08-26T21:12:04.204Z,7.93
2017-08-26T21:14:31.812Z,7.90
2017-08-26T21:16:59.461Z,8.20
2017-08-26T21:19:27.480Z,7.87
2017-08-26T21:21:55.086Z,7.33
2017-08-26T21:24:22.700Z,7.70
2017-08-26T21:26:50.850Z,8.10
2017-08-26T21:29:18.457Z,8.13
2017-08-26T21:31:46.894Z,8.10
2017-08-26T21:34:14.968Z,8.50
2017-08-26T21:36:42.618Z,7.80
2017-08-26T21:39:10.236Z,8.07
2017-08-26T21:41:38.261Z,8.10
2017-08-26T21:44:05.886Z,8.10
2017-08-26T21:46:33.511Z,8.00
2017-08-26T21:49:01.546Z,9.30
2017-08-26T21:51:29.163Z,8.60
2017-08-26T21:53:56.787Z,8.13
2017-08-26T21:56:24.845Z,7.63
2017-08-26T21:58:52.486Z,8.30
2017-08-26T22:01:20.099Z,8.53
2017-08-26T22:03:48.077Z,7.60
2017-08-26T22:06:15.703Z,7.90
2017-08-26T22:08:43.360Z,8.53
2017-08-26T22:11:11.432Z,7.80
2017-08-26T22:13:39.054Z,8.50
2017-08-26T22:16:06.658Z,8.00
2017-08-26T22:18:34.823Z,8.40
2017-08-26T22:21:02.455Z,8.40
2017-08-26T22:23:30.090Z,8.03
2017-08-26T22:25:58.109Z,8.50
2017-08-26T22:28:25.721Z,7.87
